sensor_id;sensor_type;location;lat;lon;timestamp;temperature;humidity
4505;DHT22;2265;48.794;9.520;2022-11-18T00:00:10;9.70;98.00
4505;DHT22;2265;48.794;9.520;2022-11-18T00:02:38;9.60;98.00
4505;DHT22;2265;48.794;9.520;2022-11-18T00:05:05;9.70;98.00
4505;DHT22;2265;48.794;9.520;2022-11-18T00:07:32;9.60;98.00
4505;DHT22;2265;48.794;9.520;2022-11-18T00:09:59;9.50;98.00
4505;DHT22;2265;48.794;9.520;2022-11-18T00:12:26;9.50;98.00
4505;DHT22;2265;48.794;9.520;2022-11-18T00:15:12;9.50;98.00
4505;DHT22;2265;48.794;9.520;2022-11-18T00:17:39;9.50;98.00
4505;DHT22;2265;48.794;9.520;2022-11-18T00:20:07;9.40;98.00
4505;DHT22;2265;48.794;9.520;2022-11-18T00:22:34;9.40;98.00
4505;DHT22;2265;48.794;9.520;2022-11-18T00:25:01;9.40;98.00
4505;DHT22;2265;48.794;9.520;2022-11-18T00:27:28;9.40;98.00
4505;DHT22;2265;48.794;9.520;2022-11-18T00:29:56;9.40;98.00
4505;DHT22;2265;48.794;9.520;2022-11-18T00:32:24;9.50;98.00
4505;DHT22;2265;48.794;9.520;2022-11-18T00:34:51;9.50;98.00
4505;DHT22;2265;48.794;9.520;2022-11-18T00:37:18;9.50;98.00
4505;DHT22;2265;48.794;9.520;2022-11-18T00:39:45;9.50;98.00
4505;DHT22;2265;48.794;9.520;2022-11-18T00:42:12;9.40;98.00
4505;DHT22;2265;48.794;9.520;2022-11-18T00:44:56;9.50;98.00
4505;DHT22;2265;48.794;9.520;2022-11-18T00:47:24;9.40;98.00
4505;DHT22;2265;48.794;9.520;2022-11-18T00:49:51;9.40;98.00
4505;DHT22;2265;48.794;9.520;2022-11-18T00:52:19;9.40;98.00
4505;DHT22;2265;48.794;9.520;2022-11-18T00:54:46;9.50;98.00
4505;DHT22;2265;48.794;9.520;2022-11-18T00:57:13;9.50;98.00
4505;DHT22;2265;48.794;9.520;2022-11-18T00:59:40;9.40;98.00
4505;DHT22;2265;48.794;9.520;2022-11-18T01:02:07;9.50;98.00
4505;DHT22;2265;48.794;9.520;2022-11-18T01:04:35;9.50;98.00
4505;DHT22;2265;48.794;9.520;2022-11-18T01:07:02;9.40;98.00
4505;DHT22;2265;48.794;9.520;2022-11-18T01:09:29;9.40;98.00
4505;DHT22;2265;48.794;9.520;2022-11-18T01:11:56;9.40;98.00
4505;DHT22;2265;48.794;9.520;2022-11-18T01:14:41;9.40;98.00
4505;DHT22;2265;48.794;9.520;2022-11-18T01:17:08;9.40;98.00
4505;DHT22;2265;48.794;9.520;2022-11-18T01:19:36;9.40;98.00
4505;DHT22;2265;48.794;9.520;2022-11-18T01:22:04;9.40;98.00
4505;DHT22;2265;48.794;9.520;2022-11-18T01:24:32;9.50;98.00
4505;DHT22;2265;48.794;9.520;2022-11-18T01:27:00;9.60;98.00
4505;DHT22;2265;48.794;9.520;2022-11-18T01:29:27;9.50;98.00
4505;DHT22;2265;48.794;9.520;2022-11-18T01:31:54;9.60;98.00
4505;DHT22;2265;48.794;9.520;2022-11-18T01:34:21;9.50;98.00
4505;DHT22;2265;48.794;9.520;2022-11-18T01:36:51;9.50;98.00
4505;DHT22;2265;48.794;9.520;2022-11-18T01:39:18;9.60;98.00
4505;DHT22;2265;48.794;9.520;2022-11-18T01:41:45;9.60;98.00
4505;DHT22;2265;48.794;9.520;2022-11-18T01:47:12;9.80;98.00
4505;DHT22;2265;48.794;9.520;2022-11-18T01:49:39;9.90;98.00
4505;DHT22;2265;48.794;9.520;2022-11-18T01:52:08;10.00;98.00
4505;DHT22;2265;48.794;9.520;2022-11-18T01:54:38;9.90;98.00
4505;DHT22;2265;48.794;9.520;2022-11-18T01:57:10;9.90;98.00
4505;DHT22;2265;48.794;9.520;2022-11-18T01:59:43;9.90;98.00
4505;DHT22;2265;48.794;9.520;2022-11-18T02:02:12;9.80;98.00
4505;DHT22;2265;48.794;9.520;2022-11-18T02:04:42;9.70;98.00
4505;DHT22;2265;48.794;9.520;2022-11-18T02:07:12;9.60;98.00
4505;DHT22;2265;48.794;9.520;2022-11-18T02:09:39;9.60;98.00
4505;DHT22;2265;48.794;9.520;2022-11-18T02:12:07;9.50;98.00
4505;DHT22;2265;48.794;9.520;2022-11-18T02:14:35;9.50;98.00
4505;DHT22;2265;48.794;9.520;2022-11-18T02:17:07;9.50;98.00
4505;DHT22;2265;48.794;9.520;2022-11-18T02:25:40;9.70;98.00
4505;DHT22;2265;48.794;9.520;2022-11-18T02:28:24;9.70;98.00
4505;DHT22;2265;48.794;9.520;2022-11-18T02:30:59;9.60;98.00
4505;DHT22;2265;48.794;9.520;2022-11-18T02:33:35;9.60;98.00
4505;DHT22;2265;48.794;9.520;2022-11-18T02:36:09;9.60;98.00
4505;DHT22;2265;48.794;9.520;2022-11-18T02:38:42;9.60;98.00
4505;DHT22;2265;48.794;9.520;2022-11-18T02:41:14;9.50;98.00
4505;DHT22;2265;48.794;9.520;2022-11-18T02:43:44;9.40;98.00
4505;DHT22;2265;48.794;9.520;2022-11-18T02:46:16;9.40;98.00
4505;DHT22;2265;48.794;9.520;2022-11-18T02:48:48;9.50;98.00
4505;DHT22;2265;48.794;9.520;2022-11-18T02:51:18;9.60;98.00
4505;DHT22;2265;48.794;9.520;2022-11-18T02:53:48;9.60;98.00
4505;DHT22;2265;48.794;9.520;2022-11-18T02:56:17;9.70;98.00
4505;DHT22;2265;48.794;9.520;2022-11-18T02:58:45;9.50;98.00
4505;DHT22;2265;48.794;9.520;2022-11-18T03:01:20;9.40;98.00
4505;DHT22;2265;48.794;9.520;2022-11-18T03:03:48;9.50;98.00
4505;DHT22;2265;48.794;9.520;2022-11-18T03:06:23;9.50;98.00
4505;DHT22;2265;48.794;9.520;2022-11-18T03:09:02;9.60;98.00
4505;DHT22;2265;48.794;9.520;2022-11-18T03:11:35;9.60;98.00
4505;DHT22;2265;48.794;9.520;2022-11-18T03:14:11;9.50;98.00
4505;DHT22;2265;48.794;9.520;2022-11-18T03:16:47;9.50;98.00
4505;DHT22;2265;48.794;9.520;2022-11-18T03:19:21;9.50;98.00
4505;DHT22;2265;48.794;9.520;2022-11-18T03:21:58;9.50;98.00
4505;DHT22;2265;48.794;9.520;2022-11-18T03:24:30;9.50;98.00
4505;DHT22;2265;48.794;9.520;2022-11-18T03:27:13;9.50;98.00
4505;DHT22;2265;48.794;9.520;2022-11-18T03:29:45;9.50;98.00
4505;DHT22;2265;48.794;9.520;2022-11-18T03:32:19;9.50;98.00
4505;DHT22;2265;48.794;9.520;2022-11-18T03:34:49;9.40;98.00
4505;DHT22;2265;48.794;9.520;2022-11-18T03:37:18;9.50;98.00
4505;DHT22;2265;48.794;9.520;2022-11-18T03:39:50;9.50;98.00
4505;DHT22;2265;48.794;9.520;2022-11-18T03:42:22;9.50;98.00
4505;DHT22;2265;48.794;9.520;2022-11-18T03:44:53;9.60;98.00
4505;DHT22;2265;48.794;9.520;2022-11-18T03:47:27;9.60;98.00
4505;DHT22;2265;48.794;9.520;2022-11-18T03:49:59;9.60;98.00
4505;DHT22;2265;48.794;9.520;2022-11-18T03:52:30;9.50;98.00
4505;DHT22;2265;48.794;9.520;2022-11-18T03:55:01;9.50;98.00
4505;DHT22;2265;48.794;9.520;2022-11-18T03:57:37;9.50;98.00
4505;DHT22;2265;48.794;9.520;2022-11-18T04:00:06;9.40;98.00
4505;DHT22;2265;48.794;9.520;2022-11-18T04:02:36;9.40;98.00
4505;DHT22;2265;48.794;9.520;2022-11-18T04:05:05;9.50;98.00
4505;DHT22;2265;48.794;9.520;2022-11-18T04:07:38;9.50;98.00
4505;DHT22;2265;48.794;9.520;2022-11-18T04:10:10;9.50;98.00
4505;DHT22;2265;48.794;9.520;2022-11-18T04:12:43;9.50;98.00
4505;DHT22;2265;48.794;9.520;2022-11-18T04:15:11;9.40;98.00
4505;DHT22;2265;48.794;9.520;2022-11-18T04:17:42;9.40;98.00
4505;DHT22;2265;48.794;9.520;2022-11-18T04:20:13;9.40;98.00
4505;DHT22;2265;48.794;9.520;2022-11-18T04:22:41;9.50;98.00
4505;DHT22;2265;48.794;9.520;2022-11-18T04:25:08;9.60;98.00
4505;DHT22;2265;48.794;9.520;2022-11-18T04:27:35;9.50;98.00
4505;DHT22;2265;48.794;9.520;2022-11-18T04:30:03;9.50;98.00
4505;DHT22;2265;48.794;9.520;2022-11-18T04:32:30;9.40;98.00
4505;DHT22;2265;48.794;9.520;2022-11-18T04:34:58;9.40;98.00
4505;DHT22;2265;48.794;9.520;2022-11-18T04:37:25;9.20;98.00
4505;DHT22;2265;48.794;9.520;2022-11-18T04:39:52;9.40;98.00
4505;DHT22;2265;48.794;9.520;2022-11-18T04:42:20;9.40;98.00
4505;DHT22;2265;48.794;9.520;2022-11-18T04:44:47;9.40;98.00
4505;DHT22;2265;48.794;9.520;2022-11-18T04:47:14;9.40;98.00
4505;DHT22;2265;48.794;9.520;2022-11-18T04:49:41;9.20;98.00
4505;DHT22;2265;48.794;9.520;2022-11-18T04:52:09;9.20;98.00
4505;DHT22;2265;48.794;9.520;2022-11-18T04:54:36;9.40;98.00
4505;DHT22;2265;48.794;9.520;2022-11-18T04:57:03;9.40;98.00
4505;DHT22;2265;48.794;9.520;2022-11-18T04:59:30;9.40;98.00
4505;DHT22;2265;48.794;9.520;2022-11-18T05:01:58;9.40;98.00
4505;DHT22;2265;48.794;9.520;2022-11-18T05:04:27;9.40;98.00
4505;DHT22;2265;48.794;9.520;2022-11-18T05:06:56;9.20;98.00
4505;DHT22;2265;48.794;9.520;2022-11-18T05:09:25;9.20;98.00
4505;DHT22;2265;48.794;9.520;2022-11-18T05:11:52;9.20;98.00
4505;DHT22;2265;48.794;9.520;2022-11-18T05:14:37;9.20;98.00
4505;DHT22;2265;48.794;9.520;2022-11-18T05:17:06;9.20;98.00
4505;DHT22;2265;48.794;9.520;2022-11-18T05:19:35;9.10;98.00
4505;DHT22;2265;48.794;9.520;2022-11-18T05:22:02;9.10;98.00
4505;DHT22;2265;48.794;9.520;2022-11-18T05:24:31;9.10;98.00
4505;DHT22;2265;48.794;9.520;2022-11-18T05:26:58;9.10;98.00
4505;DHT22;2265;48.794;9.520;2022-11-18T05:29:25;9.00;98.00
4505;DHT22;2265;48.794;9.520;2022-11-18T05:31:52;9.00;98.00
4505;DHT22;2265;48.794;9.520;2022-11-18T05:34:19;9.00;98.00
4505;DHT22;2265;48.794;9.520;2022-11-18T05:36:46;9.00;98.00
4505;DHT22;2265;48.794;9.520;2022-11-18T05:39:13;9.00;98.00
4505;DHT22;2265;48.794;9.520;2022-11-18T05:41:42;9.00;98.00
4505;DHT22;2265;48.794;9.520;2022-11-18T05:44:26;8.90;98.00
4505;DHT22;2265;48.794;9.520;2022-11-18T05:46:53;8.90;98.00
4505;DHT22;2265;48.794;9.520;2022-11-18T05:49:21;8.90;98.00
4505;DHT22;2265;48.794;9.520;2022-11-18T05:51:48;8.80;98.00
4505;DHT22;2265;48.794;9.520;2022-11-18T05:54:15;8.70;98.00
4505;DHT22;2265;48.794;9.520;2022-11-18T05:56:46;8.60;98.00
4505;DHT22;2265;48.794;9.520;2022-11-18T05:59:13;8.50;98.00
4505;DHT22;2265;48.794;9.520;2022-11-18T06:01:44;8.50;98.00
4505;DHT22;2265;48.794;9.520;2022-11-18T06:04:15;8.40;98.00
4505;DHT22;2265;48.794;9.520;2022-11-18T06:06:45;8.50;98.00
4505;DHT22;2265;48.794;9.520;2022-11-18T06:09:16;8.60;98.00
4505;DHT22;2265;48.794;9.520;2022-11-18T06:11:49;8.60;98.00
4505;DHT22;2265;48.794;9.520;2022-11-18T06:14:20;8.60;98.00
4505;DHT22;2265;48.794;9.520;2022-11-18T06:16:51;8.60;98.00
4505;DHT22;2265;48.794;9.520;2022-11-18T06:19:20;8.70;98.00
4505;DHT22;2265;48.794;9.520;2022-11-18T06:21:48;8.80;98.00
4505;DHT22;2265;48.794;9.520;2022-11-18T06:24:15;8.80;98.00
4505;DHT22;2265;48.794;9.520;2022-11-18T06:26:43;8.80;98.00
4505;DHT22;2265;48.794;9.520;2022-11-18T06:29:13;9.00;98.00
4505;DHT22;2265;48.794;9.520;2022-11-18T06:31:41;8.90;98.00
4505;DHT22;2265;48.794;9.520;2022-11-18T06:34:08;8.70;98.00
4505;DHT22;2265;48.794;9.520;2022-11-18T06:36:35;8.70;98.00
4505;DHT22;2265;48.794;9.520;2022-11-18T06:39:03;8.80;98.00
4505;DHT22;2265;48.794;9.520;2022-11-18T06:41:30;8.80;98.00
4505;DHT22;2265;48.794;9.520;2022-11-18T06:43:57;8.80;98.00
4505;DHT22;2265;48.794;9.520;2022-11-18T06:46:25;8.80;98.00
4505;DHT22;2265;48.794;9.520;2022-11-18T06:49:09;8.80;98.00
4505;DHT22;2265;48.794;9.520;2022-11-18T06:51:36;8.70;98.00
4505;DHT22;2265;48.794;9.520;2022-11-18T06:54:03;8.60;98.00
4505;DHT22;2265;48.794;9.520;2022-11-18T06:56:30;8.70;98.00
4505;DHT22;2265;48.794;9.520;2022-11-18T06:58:58;8.70;98.00
4505;DHT22;2265;48.794;9.520;2022-11-18T07:01:27;8.70;98.00
4505;DHT22;2265;48.794;9.520;2022-11-18T07:03:57;8.70;98.00
4505;DHT22;2265;48.794;9.520;2022-11-18T07:06:25;8.70;98.00
4505;DHT22;2265;48.794;9.520;2022-11-18T07:08:52;8.80;98.00
4505;DHT22;2265;48.794;9.520;2022-11-18T07:11:22;8.80;98.00
4505;DHT22;2265;48.794;9.520;2022-11-18T07:13:49;8.90;98.00
4505;DHT22;2265;48.794;9.520;2022-11-18T07:16:18;8.80;98.00
4505;DHT22;2265;48.794;9.520;2022-11-18T07:18:48;8.80;98.00
4505;DHT22;2265;48.794;9.520;2022-11-18T07:21:17;8.90;98.00
4505;DHT22;2265;48.794;9.520;2022-11-18T07:23:45;9.10;98.00
4505;DHT22;2265;48.794;9.520;2022-11-18T07:26:13;9.20;98.00
4505;DHT22;2265;48.794;9.520;2022-11-18T07:28:41;9.10;98.00
4505;DHT22;2265;48.794;9.520;2022-11-18T07:31:09;9.20;98.00
4505;DHT22;2265;48.794;9.520;2022-11-18T07:33:37;9.30;98.00
4505;DHT22;2265;48.794;9.520;2022-11-18T07:36:08;9.50;98.00
4505;DHT22;2265;48.794;9.520;2022-11-18T07:38:36;9.40;98.00
4505;DHT22;2265;48.794;9.520;2022-11-18T07:41:04;9.40;98.00
4505;DHT22;2265;48.794;9.520;2022-11-18T07:43:32;9.50;98.00
4505;DHT22;2265;48.794;9.520;2022-11-18T07:46:11;9.50;98.00
4505;DHT22;2265;48.794;9.520;2022-11-18T07:48:38;9.50;98.00
4505;DHT22;2265;48.794;9.520;2022-11-18T07:51:07;9.50;98.00
4505;DHT22;2265;48.794;9.520;2022-11-18T07:53:34;9.50;98.00
4505;DHT22;2265;48.794;9.520;2022-11-18T07:56:01;9.60;98.00
4505;DHT22;2265;48.794;9.520;2022-11-18T07:58:28;9.50;98.00
4505;DHT22;2265;48.794;9.520;2022-11-18T08:00:56;9.50;98.00
4505;DHT22;2265;48.794;9.520;2022-11-18T08:03:24;9.50;98.00
4505;DHT22;2265;48.794;9.520;2022-11-18T08:05:52;9.50;98.00
4505;DHT22;2265;48.794;9.520;2022-11-18T08:08:21;9.50;98.00
4505;DHT22;2265;48.794;9.520;2022-11-18T08:10:48;9.90;98.00
4505;DHT22;2265;48.794;9.520;2022-11-18T08:13:15;10.70;98.00
4505;DHT22;2265;48.794;9.520;2022-11-18T08:15:42;11.40;98.00
4505;DHT22;2265;48.794;9.520;2022-11-18T08:18:09;12.00;98.00
4505;DHT22;2265;48.794;9.520;2022-11-18T08:20:36;12.60;98.00
4505;DHT22;2265;48.794;9.520;2022-11-18T08:23:04;13.00;98.00
4505;DHT22;2265;48.794;9.520;2022-11-18T08:25:32;13.40;98.00
4505;DHT22;2265;48.794;9.520;2022-11-18T08:28:02;13.00;98.00
4505;DHT22;2265;48.794;9.520;2022-11-18T08:30:30;12.30;98.00
4505;DHT22;2265;48.794;9.520;2022-11-18T08:32:59;11.70;98.00
4505;DHT22;2265;48.794;9.520;2022-11-18T08:35:27;11.30;98.00
4505;DHT22;2265;48.794;9.520;2022-11-18T08:38:00;11.10;98.00
4505;DHT22;2265;48.794;9.520;2022-11-18T08:40:33;10.80;98.00
4505;DHT22;2265;48.794;9.520;2022-11-18T08:43:03;10.40;98.00
4505;DHT22;2265;48.794;9.520;2022-11-18T08:45:31;10.40;98.00
4505;DHT22;2265;48.794;9.520;2022-11-18T08:47:58;10.10;98.00
4505;DHT22;2265;48.794;9.520;2022-11-18T08:50:25;9.80;98.00
4505;DHT22;2265;48.794;9.520;2022-11-18T08:52:52;9.80;98.00
4505;DHT22;2265;48.794;9.520;2022-11-18T08:55:19;9.80;98.00
4505;DHT22;2265;48.794;9.520;2022-11-18T08:57:48;9.60;98.00
4505;DHT22;2265;48.794;9.520;2022-11-18T09:00:16;9.50;98.00
4505;DHT22;2265;48.794;9.520;2022-11-18T09:02:43;9.40;98.00
4505;DHT22;2265;48.794;9.520;2022-11-18T09:05:11;9.30;98.00
4505;DHT22;2265;48.794;9.520;2022-11-18T09:07:38;9.30;98.00
4505;DHT22;2265;48.794;9.520;2022-11-18T09:10:05;9.20;98.00
4505;DHT22;2265;48.794;9.520;2022-11-18T09:12:33;9.20;98.00
4505;DHT22;2265;48.794;9.520;2022-11-18T09:15:01;9.20;98.00
4505;DHT22;2265;48.794;9.520;2022-11-18T09:17:28;9.20;98.00
4505;DHT22;2265;48.794;9.520;2022-11-18T09:19:55;9.30;98.00
4505;DHT22;2265;48.794;9.520;2022-11-18T09:22:23;9.40;98.00
4505;DHT22;2265;48.794;9.520;2022-11-18T09:24:50;9.40;98.00
4505;DHT22;2265;48.794;9.520;2022-11-18T09:27:17;9.40;98.00
4505;DHT22;2265;48.794;9.520;2022-11-18T09:29:44;9.40;98.00
4505;DHT22;2265;48.794;9.520;2022-11-18T09:32:12;9.50;98.00
4505;DHT22;2265;48.794;9.520;2022-11-18T09:34:39;9.50;98.00
4505;DHT22;2265;48.794;9.520;2022-11-18T09:37:07;9.50;98.00
4505;DHT22;2265;48.794;9.520;2022-11-18T09:39:34;9.60;98.00
4505;DHT22;2265;48.794;9.520;2022-11-18T09:42:18;9.60;98.00
4505;DHT22;2265;48.794;9.520;2022-11-18T09:44:59;9.60;98.00
4505;DHT22;2265;48.794;9.520;2022-11-18T09:47:31;9.80;98.00
4505;DHT22;2265;48.794;9.520;2022-11-18T09:50:00;9.80;98.00
4505;DHT22;2265;48.794;9.520;2022-11-18T09:52:32;9.70;98.00
4505;DHT22;2265;48.794;9.520;2022-11-18T09:55:03;9.80;98.00
4505;DHT22;2265;48.794;9.520;2022-11-18T09:57:39;9.80;98.00
4505;DHT22;2265;48.794;9.520;2022-11-18T10:00:13;9.80;98.00
4505;DHT22;2265;48.794;9.520;2022-11-18T10:02:55;9.70;98.00
4505;DHT22;2265;48.794;9.520;2022-11-18T10:05:26;9.60;98.00
4505;DHT22;2265;48.794;9.520;2022-11-18T10:08:02;9.80;98.00
4505;DHT22;2265;48.794;9.520;2022-11-18T10:10:37;9.70;98.00
4505;DHT22;2265;48.794;9.520;2022-11-18T10:13:12;9.90;98.00
4505;DHT22;2265;48.794;9.520;2022-11-18T10:15:52;10.00;98.00
4505;DHT22;2265;48.794;9.520;2022-11-18T10:18:27;10.00;98.00
4505;DHT22;2265;48.794;9.520;2022-11-18T10:21:01;10.10;98.00
4505;DHT22;2265;48.794;9.520;2022-11-18T10:23:42;10.10;98.00
4505;DHT22;2265;48.794;9.520;2022-11-18T10:26:11;10.10;98.00
4505;DHT22;2265;48.794;9.520;2022-11-18T10:28:38;10.10;98.00
4505;DHT22;2265;48.794;9.520;2022-11-18T10:31:07;10.20;98.00
4505;DHT22;2265;48.794;9.520;2022-11-18T10:33:37;10.30;98.00
4505;DHT22;2265;48.794;9.520;2022-11-18T10:36:09;10.10;98.00
4505;DHT22;2265;48.794;9.520;2022-11-18T10:38:37;10.10;98.00
4505;DHT22;2265;48.794;9.520;2022-11-18T10:41:07;10.10;98.00
4505;DHT22;2265;48.794;9.520;2022-11-18T10:43:48;10.10;98.00
4505;DHT22;2265;48.794;9.520;2022-11-18T10:46:18;10.00;98.00
4505;DHT22;2265;48.794;9.520;2022-11-18T10:49:10;10.00;98.00
4505;DHT22;2265;48.794;9.520;2022-11-18T10:51:40;10.20;98.00
4505;DHT22;2265;48.794;9.520;2022-11-18T10:54:14;10.30;98.00
4505;DHT22;2265;48.794;9.520;2022-11-18T10:56:49;10.20;98.00
4505;DHT22;2265;48.794;9.520;2022-11-18T10:59:29;10.20;98.00
4505;DHT22;2265;48.794;9.520;2022-11-18T11:02:03;10.20;98.00
4505;DHT22;2265;48.794;9.520;2022-11-18T11:04:39;10.20;98.00
4505;DHT22;2265;48.794;9.520;2022-11-18T11:07:24;10.20;98.00
4505;DHT22;2265;48.794;9.520;2022-11-18T11:10:22;10.10;98.00
4505;DHT22;2265;48.794;9.520;2022-11-18T11:12:52;10.00;98.00
4505;DHT22;2265;48.794;9.520;2022-11-18T11:15:25;10.00;98.00
4505;DHT22;2265;48.794;9.520;2022-11-18T11:17:58;10.00;98.00
4505;DHT22;2265;48.794;9.520;2022-11-18T11:20:44;10.10;98.00
4505;DHT22;2265;48.794;9.520;2022-11-18T11:23:12;10.00;98.00
4505;DHT22;2265;48.794;9.520;2022-11-18T11:25:43;9.90;98.00
4505;DHT22;2265;48.794;9.520;2022-11-18T11:28:16;9.70;98.00
4505;DHT22;2265;48.794;9.520;2022-11-18T11:30:54;9.70;98.00
4505;DHT22;2265;48.794;9.520;2022-11-18T11:33:33;9.70;98.00
4505;DHT22;2265;48.794;9.520;2022-11-18T11:36:23;9.80;98.00
4505;DHT22;2265;48.794;9.520;2022-11-18T11:39:03;10.00;98.00
4505;DHT22;2265;48.794;9.520;2022-11-18T11:41:40;10.00;98.00
4505;DHT22;2265;48.794;9.520;2022-11-18T11:44:19;10.00;98.00
4505;DHT22;2265;48.794;9.520;2022-11-18T11:46:57;10.00;98.00
4505;DHT22;2265;48.794;9.520;2022-11-18T11:50:00;10.00;98.00
4505;DHT22;2265;48.794;9.520;2022-11-18T11:52:36;9.80;98.00
4505;DHT22;2265;48.794;9.520;2022-11-18T11:55:15;9.80;98.00
4505;DHT22;2265;48.794;9.520;2022-11-18T12:00:40;9.60;98.00
4505;DHT22;2265;48.794;9.520;2022-11-18T12:03:32;9.70;98.00
4505;DHT22;2265;48.794;9.520;2022-11-18T12:06:03;9.80;98.00
4505;DHT22;2265;48.794;9.520;2022-11-18T12:08:32;9.80;98.00
4505;DHT22;2265;48.794;9.520;2022-11-18T12:11:04;9.70;98.00
4505;DHT22;2265;48.794;9.520;2022-11-18T12:13:36;9.80;98.00
4505;DHT22;2265;48.794;9.520;2022-11-18T12:16:13;10.00;98.00
4505;DHT22;2265;48.794;9.520;2022-11-18T12:18:44;10.40;98.00
4505;DHT22;2265;48.794;9.520;2022-11-18T12:24:33;10.90;98.00
4505;DHT22;2265;48.794;9.520;2022-11-18T12:27:03;10.90;98.00
4505;DHT22;2265;48.794;9.520;2022-11-18T12:29:37;10.90;98.00
4505;DHT22;2265;48.794;9.520;2022-11-18T12:32:33;10.80;98.00
4505;DHT22;2265;48.794;9.520;2022-11-18T12:35:22;10.70;98.00
4505;DHT22;2265;48.794;9.520;2022-11-18T12:38:00;10.60;98.00
4505;DHT22;2265;48.794;9.520;2022-11-18T12:40:36;10.60;98.00
4505;DHT22;2265;48.794;9.520;2022-11-18T12:43:05;10.60;98.00
4505;DHT22;2265;48.794;9.520;2022-11-18T12:45:54;10.60;98.00
4505;DHT22;2265;48.794;9.520;2022-11-18T12:48:38;10.40;98.00
4505;DHT22;2265;48.794;9.520;2022-11-18T12:54:26;10.40;98.00
4505;DHT22;2265;48.794;9.520;2022-11-18T12:56:58;10.30;98.00
4505;DHT22;2265;48.794;9.520;2022-11-18T12:59:27;10.30;98.00
4505;DHT22;2265;48.794;9.520;2022-11-18T13:02:15;10.40;98.00
4505;DHT22;2265;48.794;9.520;2022-11-18T13:04:43;10.40;98.00
4505;DHT22;2265;48.794;9.520;2022-11-18T13:07:16;10.50;98.00
4505;DHT22;2265;48.794;9.520;2022-11-18T13:09:58;10.50;98.00
4505;DHT22;2265;48.794;9.520;2022-11-18T13:12:37;10.30;98.00
4505;DHT22;2265;48.794;9.520;2022-11-18T13:15:09;10.40;98.00
4505;DHT22;2265;48.794;9.520;2022-11-18T13:18:05;10.50;98.00
4505;DHT22;2265;48.794;9.520;2022-11-18T13:20:35;10.80;98.00
4505;DHT22;2265;48.794;9.520;2022-11-18T13:23:14;10.70;98.00
4505;DHT22;2265;48.794;9.520;2022-11-18T13:26:04;10.70;98.00
4505;DHT22;2265;48.794;9.520;2022-11-18T13:28:37;10.40;98.00
4505;DHT22;2265;48.794;9.520;2022-11-18T13:31:13;10.40;98.00
4505;DHT22;2265;48.794;9.520;2022-11-18T13:33:41;10.40;98.00
4505;DHT22;2265;48.794;9.520;2022-11-18T13:36:16;10.30;98.00
4505;DHT22;2265;48.794;9.520;2022-11-18T13:38:54;10.30;98.00
4505;DHT22;2265;48.794;9.520;2022-11-18T13:41:22;10.50;98.00
4505;DHT22;2265;48.794;9.520;2022-11-18T13:44:11;10.40;98.00
4505;DHT22;2265;48.794;9.520;2022-11-18T13:46:42;10.40;98.00
4505;DHT22;2265;48.794;9.520;2022-11-18T13:49:13;10.30;98.00
4505;DHT22;2265;48.794;9.520;2022-11-18T13:51:41;10.30;98.00
4505;DHT22;2265;48.794;9.520;2022-11-18T13:54:10;10.30;98.00
4505;DHT22;2265;48.794;9.520;2022-11-18T13:56:38;10.20;98.00
4505;DHT22;2265;48.794;9.520;2022-11-18T13:59:16;10.10;98.00
4505;DHT22;2265;48.794;9.520;2022-11-18T14:01:46;10.20;98.00
4505;DHT22;2265;48.794;9.520;2022-11-18T14:04:19;10.30;98.00
4505;DHT22;2265;48.794;9.520;2022-11-18T14:06:47;10.30;98.00
4505;DHT22;2265;48.794;9.520;2022-11-18T14:09:23;10.40;98.00
4505;DHT22;2265;48.794;9.520;2022-11-18T14:11:59;10.40;98.00
4505;DHT22;2265;48.794;9.520;2022-11-18T14:14:32;10.50;98.00
4505;DHT22;2265;48.794;9.520;2022-11-18T14:17:11;10.40;98.00
4505;DHT22;2265;48.794;9.520;2022-11-18T14:19:44;10.40;98.00
4505;DHT22;2265;48.794;9.520;2022-11-18T14:22:14;10.30;98.00
4505;DHT22;2265;48.794;9.520;2022-11-18T14:24:42;10.90;98.00
4505;DHT22;2265;48.794;9.520;2022-11-18T14:27:35;11.30;98.00
4505;DHT22;2265;48.794;9.520;2022-11-18T14:33:19;11.80;98.00
4505;DHT22;2265;48.794;9.520;2022-11-18T14:35:49;11.60;98.00
4505;DHT22;2265;48.794;9.520;2022-11-18T14:38:19;11.80;98.00
4505;DHT22;2265;48.794;9.520;2022-11-18T14:40:56;11.70;98.00
4505;DHT22;2265;48.794;9.520;2022-11-18T14:43:26;11.50;98.00
4505;DHT22;2265;48.794;9.520;2022-11-18T14:45:56;11.20;98.00
4505;DHT22;2265;48.794;9.520;2022-11-18T14:48:26;11.10;98.00
4505;DHT22;2265;48.794;9.520;2022-11-18T14:50:54;10.90;98.00
4505;DHT22;2265;48.794;9.520;2022-11-18T14:53:21;10.80;98.00
4505;DHT22;2265;48.794;9.520;2022-11-18T14:55:50;10.80;98.00
4505;DHT22;2265;48.794;9.520;2022-11-18T14:58:18;10.60;98.00
4505;DHT22;2265;48.794;9.520;2022-11-18T15:00:47;10.60;98.00
4505;DHT22;2265;48.794;9.520;2022-11-18T15:03:15;10.60;98.00
4505;DHT22;2265;48.794;9.520;2022-11-18T15:05:45;10.50;98.00
4505;DHT22;2265;48.794;9.520;2022-11-18T15:08:12;10.40;98.00
4505;DHT22;2265;48.794;9.520;2022-11-18T15:10:41;10.40;98.00
4505;DHT22;2265;48.794;9.520;2022-11-18T15:13:08;10.50;98.00
4505;DHT22;2265;48.794;9.520;2022-11-18T15:15:35;10.30;98.00
4505;DHT22;2265;48.794;9.520;2022-11-18T15:18:02;10.30;98.00
4505;DHT22;2265;48.794;9.520;2022-11-18T15:20:29;10.30;98.00
4505;DHT22;2265;48.794;9.520;2022-11-18T15:23:00;10.30;98.00
4505;DHT22;2265;48.794;9.520;2022-11-18T15:25:28;10.20;98.00
4505;DHT22;2265;48.794;9.520;2022-11-18T15:27:55;10.10;98.00
4505;DHT22;2265;48.794;9.520;2022-11-18T15:30:23;10.00;98.00
4505;DHT22;2265;48.794;9.520;2022-11-18T15:32:51;9.90;98.00
4505;DHT22;2265;48.794;9.520;2022-11-18T15:35:18;9.80;98.00
4505;DHT22;2265;48.794;9.520;2022-11-18T15:37:45;9.70;98.00
4505;DHT22;2265;48.794;9.520;2022-11-18T15:40:13;9.60;98.00
4505;DHT22;2265;48.794;9.520;2022-11-18T15:42:41;9.70;98.00
4505;DHT22;2265;48.794;9.520;2022-11-18T15:45:08;9.70;98.00
4505;DHT22;2265;48.794;9.520;2022-11-18T15:47:36;9.60;98.00
4505;DHT22;2265;48.794;9.520;2022-11-18T15:50:05;9.60;98.00
4505;DHT22;2265;48.794;9.520;2022-11-18T15:52:34;9.50;98.00
4505;DHT22;2265;48.794;9.520;2022-11-18T15:55:01;9.70;98.00
4505;DHT22;2265;48.794;9.520;2022-11-18T15:57:30;9.70;98.00
4505;DHT22;2265;48.794;9.520;2022-11-18T15:59:57;9.70;98.00
4505;DHT22;2265;48.794;9.520;2022-11-18T16:02:24;9.80;98.00
4505;DHT22;2265;48.794;9.520;2022-11-18T16:04:51;9.80;98.00
4505;DHT22;2265;48.794;9.520;2022-11-18T16:07:18;9.80;98.00
4505;DHT22;2265;48.794;9.520;2022-11-18T16:09:45;9.80;98.00
4505;DHT22;2265;48.794;9.520;2022-11-18T16:12:31;9.80;98.00
4505;DHT22;2265;48.794;9.520;2022-11-18T16:15:13;9.90;98.00
4505;DHT22;2265;48.794;9.520;2022-11-18T16:17:57;9.90;98.00
4505;DHT22;2265;48.794;9.520;2022-11-18T16:20:28;9.80;98.00
4505;DHT22;2265;48.794;9.520;2022-11-18T16:22:56;9.90;98.00
4505;DHT22;2265;48.794;9.520;2022-11-18T16:25:23;9.80;98.00
4505;DHT22;2265;48.794;9.520;2022-11-18T16:27:53;9.70;98.00
4505;DHT22;2265;48.794;9.520;2022-11-18T16:30:20;9.60;98.00
4505;DHT22;2265;48.794;9.520;2022-11-18T16:33:05;9.60;98.00
4505;DHT22;2265;48.794;9.520;2022-11-18T16:35:32;9.70;98.00
4505;DHT22;2265;48.794;9.520;2022-11-18T16:37:59;9.60;98.00
4505;DHT22;2265;48.794;9.520;2022-11-18T16:40:26;9.60;98.00
4505;DHT22;2265;48.794;9.520;2022-11-18T16:42:55;9.60;98.00
4505;DHT22;2265;48.794;9.520;2022-11-18T16:45:22;9.50;98.00
4505;DHT22;2265;48.794;9.520;2022-11-18T16:47:49;9.50;98.00
4505;DHT22;2265;48.794;9.520;2022-11-18T16:50:17;9.50;98.00
4505;DHT22;2265;48.794;9.520;2022-11-18T16:52:44;9.50;98.00
4505;DHT22;2265;48.794;9.520;2022-11-18T16:55:11;9.50;98.00
4505;DHT22;2265;48.794;9.520;2022-11-18T16:57:38;9.50;98.00